BAW1903 EGLL-LSGG
Flight info
| Callsign | BAW1903 |
|---|---|
| Flight time | 1h 16m |
| Altitude | 35000 |
| Route | MAXIT Y803 MID UL612 VEULE DCT PEKIM DCT PILUL DCT PIMUP/N0431F270 DCT PIXIS DCT PIBAT/N0406F230 DCT LUSAR |
| Aircraft | A320/M-SDE3FGHIRWY/LB1 |
Departure
| Time | 2026-05-06 07:30 |
|---|---|
| Airport | London Heathrow Airport (EGLL) |
Arrival
| Time | 2026-05-06 08:46 |
|---|---|
| Airport | Geneva International Airport (LSGG) |
| Time | Latitude | Longitude | Altitude | Speed | Heading |
|---|---|---|---|---|---|
| 2026-05-06 07:02 | 51.47187 | -0.48606 | 88 ft | 0 kts | 269° |
| 2026-05-06 07:02 | 51.47187 | -0.48602 | 90 ft | 0 kts | 269° |
| 2026-05-06 07:23 | 51.47187 | -0.48593 | 87 ft | 4 kts | 269° |
| 2026-05-06 07:23 | 51.47187 | -0.48553 | 87 ft | 2 kts | 269° |
| 2026-05-06 07:24 | 51.47188 | -0.48516 | 87 ft | 4 kts | 257° |
| 2026-05-06 07:24 | 51.47199 | -0.48481 | 88 ft | 4 kts | 206° |
| 2026-05-06 07:24 | 51.47216 | -0.48475 | 88 ft | 0 kts | 179° |
| 2026-05-06 07:27 | 51.47210 | -0.48475 | 89 ft | 4 kts | 180° |
| 2026-05-06 07:27 | 51.47168 | -0.48476 | 88 ft | 7 kts | 181° |
| 2026-05-06 07:27 | 51.47111 | -0.48477 | 87 ft | 9 kts | 181° |
| 2026-05-06 07:27 | 51.47039 | -0.48475 | 87 ft | 11 kts | 179° |
| 2026-05-06 07:28 | 51.46954 | -0.48473 | 87 ft | 13 kts | 179° |
| 2026-05-06 07:28 | 51.46890 | -0.48472 | 89 ft | 14 kts | 179° |
| 2026-05-06 07:28 | 51.46670 | -0.48473 | 87 ft | 17 kts | 180° |
| 2026-05-06 07:29 | 51.46550 | -0.48473 | 88 ft | 15 kts | 181° |
| 2026-05-06 07:29 | 51.46480 | -0.48413 | 89 ft | 13 kts | 105° |
| 2026-05-06 07:29 | 51.46478 | -0.48335 | 89 ft | 6 kts | 90° |
| 2026-05-06 07:29 | 51.46482 | -0.47946 | 90 ft | 69 kts | 89° |
| 2026-05-06 07:30 | 51.46483 | -0.46858 | 89 ft | 123 kts | 90° |
| 2026-05-06 07:30 | 51.46489 | -0.45273 | 116 ft | 160 kts | 90° |
| 2026-05-06 07:30 | 51.46483 | -0.43524 | 728 ft | 155 kts | 84° |
| 2026-05-06 07:30 | 51.46464 | -0.41765 | 1305 ft | 164 kts | 96° |
| 2026-05-06 07:31 | 51.45883 | -0.40035 | 1588 ft | 190 kts | 126° |
| 2026-05-06 07:31 | 51.44985 | -0.38349 | 1925 ft | 208 kts | 132° |
| 2026-05-06 07:31 | 51.43633 | -0.37206 | 2235 ft | 234 kts | 158° |
| 2026-05-06 07:31 | 51.42008 | -0.36308 | 2586 ft | 259 kts | 159° |
| 2026-05-06 07:32 | 51.40207 | -0.35844 | 3200 ft | 274 kts | 184° |
| 2026-05-06 07:32 | 51.38374 | -0.36703 | 4014 ft | 278 kts | 208° |
| 2026-05-06 07:32 | 51.36699 | -0.38041 | 4893 ft | 281 kts | 208° |
| 2026-05-06 07:32 | 51.34907 | -0.39460 | 5700 ft | 285 kts | 209° |
| 2026-05-06 07:33 | 51.33134 | -0.40865 | 5955 ft | 283 kts | 209° |
| 2026-05-06 07:33 | 51.31386 | -0.42246 | 6010 ft | 282 kts | 209° |
| 2026-05-06 07:33 | 51.29642 | -0.43614 | 6002 ft | 281 kts | 209° |
| 2026-05-06 07:33 | 51.27879 | -0.44992 | 6007 ft | 281 kts | 208° |
| 2026-05-06 07:34 | 51.26124 | -0.46378 | 6007 ft | 281 kts | 209° |
| 2026-05-06 07:34 | 51.24379 | -0.47777 | 6007 ft | 281 kts | 210° |
| 2026-05-06 07:34 | 51.22623 | -0.49184 | 6049 ft | 282 kts | 209° |
| 2026-05-06 07:34 | 51.20845 | -0.50585 | 6831 ft | 283 kts | 208° |
| 2026-05-06 07:35 | 51.19094 | -0.51946 | 7704 ft | 285 kts | 208° |
| 2026-05-06 07:35 | 51.17298 | -0.53336 | 8520 ft | 288 kts | 208° |
| 2026-05-06 07:35 | 51.15473 | -0.54741 | 9317 ft | 293 kts | 207° |
| 2026-05-06 07:35 | 51.13619 | -0.56159 | 10093 ft | 296 kts | 207° |
| 2026-05-06 07:36 | 51.11710 | -0.57627 | 10467 ft | 315 kts | 207° |
| 2026-05-06 07:36 | 51.09662 | -0.59097 | 10622 ft | 338 kts | 201° |
| 2026-05-06 07:36 | 51.07299 | -0.59959 | 10860 ft | 358 kts | 186° |
| 2026-05-06 07:36 | 51.04790 | -0.59872 | 11424 ft | 365 kts | 172° |
| 2026-05-06 07:37 | 51.02332 | -0.58811 | 12059 ft | 368 kts | 157° |
| 2026-05-06 07:37 | 51.00083 | -0.56830 | 12748 ft | 371 kts | 146° |
| 2026-05-06 07:37 | 50.97937 | -0.54527 | 13436 ft | 373 kts | 146° |
| 2026-05-06 07:37 | 50.95774 | -0.52221 | 14075 ft | 376 kts | 147° |
| 2026-05-06 07:38 | 50.93578 | -0.49889 | 14663 ft | 380 kts | 147° |
| 2026-05-06 07:38 | 50.91397 | -0.47573 | 15217 ft | 383 kts | 147° |
| 2026-05-06 07:38 | 50.89168 | -0.45207 | 15766 ft | 386 kts | 147° |
| 2026-05-06 07:38 | 50.86923 | -0.42826 | 16312 ft | 390 kts | 147° |
| 2026-05-06 07:39 | 50.84654 | -0.40414 | 16869 ft | 394 kts | 147° |
| 2026-05-06 07:39 | 50.82391 | -0.38013 | 17436 ft | 397 kts | 147° |
| 2026-05-06 07:39 | 50.80082 | -0.35568 | 18013 ft | 401 kts | 147° |
| 2026-05-06 07:39 | 50.77754 | -0.33110 | 18561 ft | 404 kts | 147° |
| 2026-05-06 07:40 | 50.75399 | -0.30632 | 19096 ft | 407 kts | 147° |
| 2026-05-06 07:40 | 50.73032 | -0.28148 | 19662 ft | 410 kts | 147° |
| 2026-05-06 07:40 | 50.70648 | -0.25641 | 20214 ft | 412 kts | 147° |
| 2026-05-06 07:40 | 50.68253 | -0.23121 | 20766 ft | 414 kts | 147° |
| 2026-05-06 07:41 | 50.65851 | -0.20593 | 21273 ft | 416 kts | 147° |
| 2026-05-06 07:41 | 50.63459 | -0.18078 | 21771 ft | 418 kts | 147° |
| 2026-05-06 07:41 | 50.61025 | -0.15525 | 22260 ft | 420 kts | 147° |
| 2026-05-06 07:41 | 50.58584 | -0.12965 | 22735 ft | 422 kts | 147° |
| 2026-05-06 07:42 | 50.56121 | -0.10390 | 23207 ft | 424 kts | 147° |
| 2026-05-06 07:42 | 50.53654 | -0.07824 | 23649 ft | 426 kts | 147° |
| 2026-05-06 07:42 | 50.51166 | -0.05241 | 24022 ft | 428 kts | 147° |
| 2026-05-06 07:42 | 50.48713 | -0.02693 | 24379 ft | 430 kts | 147° |
| 2026-05-06 07:43 | 50.46211 | -0.00101 | 24725 ft | 432 kts | 147° |
| 2026-05-06 07:43 | 50.43695 | 0.02505 | 25074 ft | 434 kts | 147° |
| 2026-05-06 07:43 | 50.41172 | 0.05117 | 25418 ft | 436 kts | 147° |
| 2026-05-06 07:43 | 50.38629 | 0.07753 | 25754 ft | 438 kts | 147° |
| 2026-05-06 07:44 | 50.36077 | 0.10395 | 26093 ft | 440 kts | 147° |
| 2026-05-06 07:44 | 50.33505 | 0.13047 | 26428 ft | 442 kts | 147° |
| 2026-05-06 07:44 | 50.30958 | 0.15665 | 26755 ft | 444 kts | 147° |
| 2026-05-06 07:44 | 50.28371 | 0.18323 | 27090 ft | 446 kts | 147° |
| 2026-05-06 07:45 | 50.25768 | 0.20998 | 27423 ft | 448 kts | 147° |
| 2026-05-06 07:45 | 50.23156 | 0.23681 | 27782 ft | 449 kts | 147° |
| 2026-05-06 07:45 | 50.20543 | 0.26364 | 28259 ft | 448 kts | 147° |
| 2026-05-06 07:45 | 50.17941 | 0.29038 | 28737 ft | 446 kts | 146° |
| 2026-05-06 07:46 | 50.15383 | 0.31677 | 29217 ft | 445 kts | 146° |
| 2026-05-06 07:46 | 50.12806 | 0.34335 | 29690 ft | 444 kts | 146° |
| 2026-05-06 07:46 | 50.10237 | 0.36982 | 30158 ft | 442 kts | 146° |
| 2026-05-06 07:46 | 50.07667 | 0.39620 | 30557 ft | 441 kts | 146° |
| 2026-05-06 07:47 | 50.05094 | 0.42251 | 30954 ft | 441 kts | 146° |
| 2026-05-06 07:47 | 50.02528 | 0.44867 | 31361 ft | 440 kts | 146° |
| 2026-05-06 07:47 | 49.99963 | 0.47476 | 31761 ft | 440 kts | 146° |
| 2026-05-06 07:47 | 49.97397 | 0.50084 | 32158 ft | 439 kts | 146° |
| 2026-05-06 07:48 | 49.94837 | 0.52689 | 32548 ft | 439 kts | 146° |
| 2026-05-06 07:48 | 49.92313 | 0.55252 | 32939 ft | 439 kts | 146° |
| 2026-05-06 07:48 | 49.89755 | 0.57848 | 33340 ft | 438 kts | 146° |
| 2026-05-06 07:48 | 49.87200 | 0.60437 | 33736 ft | 438 kts | 146° |
| 2026-05-06 07:49 | 49.84777 | 0.63288 | 34079 ft | 437 kts | 137° |
| 2026-05-06 07:49 | 49.82557 | 0.66512 | 34365 ft | 437 kts | 136° |
| 2026-05-06 07:49 | 49.80349 | 0.69745 | 34656 ft | 437 kts | 136° |
| 2026-05-06 07:49 | 49.78138 | 0.72970 | 34885 ft | 438 kts | 136° |
| 2026-05-06 07:50 | 49.73682 | 0.79453 | 34940 ft | 447 kts | 136° |
| 2026-05-06 07:50 | 49.69107 | 0.86060 | 34941 ft | 450 kts | 137° |
| 2026-05-06 07:51 | 49.64529 | 0.92657 | 34935 ft | 451 kts | 137° |
| 2026-05-06 07:51 | 49.59942 | 0.99280 | 34929 ft | 451 kts | 137° |
| 2026-05-06 07:52 | 49.55378 | 1.05840 | 34924 ft | 451 kts | 137° |
| 2026-05-06 07:52 | 49.50770 | 1.12415 | 34927 ft | 451 kts | 137° |
| 2026-05-06 07:53 | 49.46194 | 1.18948 | 34931 ft | 451 kts | 137° |
| 2026-05-06 07:53 | 49.41590 | 1.25510 | 34936 ft | 451 kts | 137° |
| 2026-05-06 07:54 | 49.36979 | 1.32058 | 34948 ft | 451 kts | 137° |
| 2026-05-06 07:54 | 49.32372 | 1.38601 | 34941 ft | 451 kts | 136° |
| 2026-05-06 07:55 | 49.27762 | 1.45117 | 34944 ft | 451 kts | 137° |
| 2026-05-06 07:55 | 49.23143 | 1.51609 | 34938 ft | 451 kts | 137° |
| 2026-05-06 07:56 | 49.18522 | 1.58101 | 34941 ft | 450 kts | 137° |
| 2026-05-06 07:56 | 49.13905 | 1.64585 | 34924 ft | 450 kts | 137° |
| 2026-05-06 07:57 | 49.09323 | 1.71009 | 34918 ft | 450 kts | 137° |
| 2026-05-06 07:57 | 49.04686 | 1.77462 | 34914 ft | 450 kts | 137° |
| 2026-05-06 07:58 | 49.00055 | 1.83898 | 34914 ft | 450 kts | 137° |
| 2026-05-06 07:58 | 48.95445 | 1.90293 | 34911 ft | 450 kts | 137° |
| 2026-05-06 07:59 | 48.90805 | 1.96717 | 34907 ft | 451 kts | 137° |
| 2026-05-06 07:59 | 48.86156 | 2.03140 | 34904 ft | 451 kts | 138° |
| 2026-05-06 08:00 | 48.81503 | 2.09545 | 34904 ft | 451 kts | 138° |
| 2026-05-06 08:00 | 48.76872 | 2.15904 | 34904 ft | 451 kts | 138° |
| 2026-05-06 08:01 | 48.72211 | 2.22289 | 34906 ft | 452 kts | 138° |
| 2026-05-06 08:01 | 48.67546 | 2.28658 | 34905 ft | 451 kts | 139° |
| 2026-05-06 08:02 | 48.62875 | 2.35003 | 34900 ft | 451 kts | 139° |
| 2026-05-06 08:02 | 48.58195 | 2.41362 | 34905 ft | 451 kts | 139° |
| 2026-05-06 08:03 | 48.53547 | 2.47667 | 34905 ft | 451 kts | 139° |
| 2026-05-06 08:03 | 48.48879 | 2.53979 | 34905 ft | 450 kts | 139° |
| 2026-05-06 08:04 | 48.44216 | 2.60266 | 34905 ft | 449 kts | 139° |
| 2026-05-06 08:04 | 48.39557 | 2.66525 | 34901 ft | 448 kts | 139° |
| 2026-05-06 08:05 | 48.34932 | 2.72728 | 34893 ft | 448 kts | 139° |
| 2026-05-06 08:05 | 48.30274 | 2.78959 | 34886 ft | 448 kts | 139° |
| 2026-05-06 08:06 | 48.25575 | 2.85094 | 34884 ft | 447 kts | 142° |
| 2026-05-06 08:06 | 48.20693 | 2.90782 | 34879 ft | 446 kts | 144° |
| 2026-05-06 08:07 | 48.15715 | 2.96348 | 34875 ft | 446 kts | 144° |
| 2026-05-06 08:07 | 48.10764 | 3.01961 | 34873 ft | 445 kts | 143° |
| 2026-05-06 08:08 | 48.05450 | 3.06627 | 34870 ft | 443 kts | 158° |
| 2026-05-06 08:08 | 47.99766 | 3.10232 | 34868 ft | 443 kts | 158° |
| 2026-05-06 08:09 | 47.94078 | 3.13796 | 34866 ft | 443 kts | 158° |
| 2026-05-06 08:09 | 47.88419 | 3.17330 | 34862 ft | 443 kts | 158° |
| 2026-05-06 08:10 | 47.82732 | 3.20895 | 34861 ft | 443 kts | 158° |
| 2026-05-06 08:10 | 47.77041 | 3.24462 | 34860 ft | 443 kts | 158° |
| 2026-05-06 08:11 | 47.71341 | 3.28015 | 34864 ft | 443 kts | 158° |
| 2026-05-06 08:11 | 47.65680 | 3.31537 | 34868 ft | 443 kts | 158° |
| 2026-05-06 08:12 | 47.59983 | 3.35080 | 34869 ft | 442 kts | 158° |
| 2026-05-06 08:12 | 47.54327 | 3.38574 | 34872 ft | 442 kts | 158° |
| 2026-05-06 08:13 | 47.48639 | 3.42083 | 34868 ft | 442 kts | 158° |
| 2026-05-06 08:13 | 47.42991 | 3.45556 | 34876 ft | 441 kts | 158° |
| 2026-05-06 08:14 | 47.37327 | 3.49042 | 34866 ft | 441 kts | 158° |
| 2026-05-06 08:14 | 47.31661 | 3.52523 | 34871 ft | 440 kts | 158° |
| 2026-05-06 08:15 | 47.25995 | 3.55988 | 34861 ft | 440 kts | 158° |
| 2026-05-06 08:15 | 47.20355 | 3.59424 | 34869 ft | 441 kts | 158° |
| 2026-05-06 08:16 | 47.14679 | 3.62883 | 34868 ft | 441 kts | 158° |
| 2026-05-06 08:16 | 47.09010 | 3.66326 | 34871 ft | 441 kts | 159° |
| 2026-05-06 08:17 | 47.04294 | 3.69178 | 34869 ft | 441 kts | 159° |
| 2026-05-06 08:17 | 46.97820 | 3.73580 | 34864 ft | 442 kts | 147° |
| 2026-05-06 08:18 | 46.94031 | 3.78615 | 34862 ft | 445 kts | 130° |
| 2026-05-06 08:18 | 46.92318 | 3.82405 | 34860 ft | 448 kts | 119° |
| 2026-05-06 08:18 | 46.91077 | 3.86588 | 34856 ft | 450 kts | 113° |
| 2026-05-06 08:19 | 46.88825 | 3.95140 | 34855 ft | 450 kts | 113° |
| 2026-05-06 08:19 | 46.86543 | 4.03679 | 34854 ft | 451 kts | 114° |
| 2026-05-06 08:20 | 46.84256 | 4.12228 | 34855 ft | 452 kts | 114° |
| 2026-05-06 08:20 | 46.81975 | 4.20732 | 34864 ft | 452 kts | 114° |
| 2026-05-06 08:21 | 46.80068 | 4.29501 | 34851 ft | 455 kts | 104° |
| 2026-05-06 08:21 | 46.78774 | 4.38571 | 34622 ft | 456 kts | 104° |
| 2026-05-06 08:22 | 46.78113 | 4.43106 | 34386 ft | 456 kts | 104° |
| 2026-05-06 08:22 | 46.77450 | 4.47630 | 34154 ft | 456 kts | 104° |
| 2026-05-06 08:22 | 46.76782 | 4.52151 | 33922 ft | 456 kts | 105° |
| 2026-05-06 08:22 | 46.76109 | 4.56670 | 33654 ft | 455 kts | 105° |
| 2026-05-06 08:23 | 46.75446 | 4.61121 | 33387 ft | 454 kts | 105° |
| 2026-05-06 08:23 | 46.74776 | 4.65616 | 33119 ft | 453 kts | 105° |
| 2026-05-06 08:23 | 46.74108 | 4.70099 | 32849 ft | 451 kts | 105° |
| 2026-05-06 08:23 | 46.73444 | 4.74555 | 32583 ft | 449 kts | 105° |
| 2026-05-06 08:24 | 46.72783 | 4.79001 | 32317 ft | 447 kts | 105° |
| 2026-05-06 08:24 | 46.72126 | 4.83423 | 32056 ft | 445 kts | 105° |
| 2026-05-06 08:24 | 46.71476 | 4.87771 | 31804 ft | 443 kts | 105° |
| 2026-05-06 08:24 | 46.70818 | 4.92152 | 31548 ft | 441 kts | 105° |
| 2026-05-06 08:25 | 46.70160 | 4.96510 | 31300 ft | 439 kts | 105° |
| 2026-05-06 08:25 | 46.69502 | 5.00849 | 30880 ft | 437 kts | 106° |
| 2026-05-06 08:25 | 46.68842 | 5.05184 | 29867 ft | 440 kts | 105° |
| 2026-05-06 08:25 | 46.68175 | 5.09546 | 28754 ft | 440 kts | 105° |
| 2026-05-06 08:26 | 46.67513 | 5.13882 | 28046 ft | 434 kts | 105° |
| 2026-05-06 08:26 | 46.66865 | 5.18128 | 27478 ft | 426 kts | 105° |
| 2026-05-06 08:26 | 46.66228 | 5.22315 | 26867 ft | 421 kts | 105° |
| 2026-05-06 08:26 | 46.65602 | 5.26457 | 26258 ft | 416 kts | 105° |
| 2026-05-06 08:27 | 46.64993 | 5.30502 | 25657 ft | 413 kts | 105° |
| 2026-05-06 08:27 | 46.64382 | 5.34565 | 25061 ft | 409 kts | 105° |
| 2026-05-06 08:27 | 46.63772 | 5.38607 | 24474 ft | 407 kts | 105° |
| 2026-05-06 08:27 | 46.63163 | 5.42617 | 23885 ft | 404 kts | 105° |
| 2026-05-06 08:28 | 46.62554 | 5.46602 | 23270 ft | 403 kts | 105° |
| 2026-05-06 08:28 | 46.61946 | 5.50563 | 22648 ft | 400 kts | 105° |
| 2026-05-06 08:28 | 46.61337 | 5.54500 | 22085 ft | 397 kts | 105° |
| 2026-05-06 08:28 | 46.60727 | 5.58408 | 21507 ft | 394 kts | 105° |
| 2026-05-06 08:29 | 46.60125 | 5.62236 | 20972 ft | 392 kts | 105° |
| 2026-05-06 08:29 | 46.59513 | 5.66107 | 20420 ft | 391 kts | 105° |
| 2026-05-06 08:29 | 46.58903 | 5.69958 | 19896 ft | 390 kts | 105° |
| 2026-05-06 08:29 | 46.58293 | 5.73801 | 19375 ft | 388 kts | 106° |
| 2026-05-06 08:30 | 46.57420 | 5.77484 | 18867 ft | 383 kts | 116° |
| 2026-05-06 08:30 | 46.56111 | 5.80821 | 18370 ft | 379 kts | 127° |
| 2026-05-06 08:30 | 46.54423 | 5.83729 | 17824 ft | 374 kts | 137° |
| 2026-05-06 08:30 | 46.52456 | 5.86097 | 17316 ft | 368 kts | 147° |
| 2026-05-06 08:31 | 46.50362 | 5.88196 | 16820 ft | 364 kts | 147° |
| 2026-05-06 08:31 | 46.48281 | 5.90288 | 16268 ft | 362 kts | 147° |
| 2026-05-06 08:31 | 46.46214 | 5.92368 | 15679 ft | 361 kts | 147° |
| 2026-05-06 08:31 | 46.44178 | 5.94417 | 15429 ft | 350 kts | 147° |
| 2026-05-06 08:32 | 46.42210 | 5.96393 | 15294 ft | 337 kts | 147° |
| 2026-05-06 08:32 | 46.40318 | 5.98289 | 15170 ft | 325 kts | 147° |
| 2026-05-06 08:32 | 46.38516 | 6.00171 | 15043 ft | 315 kts | 140° |
| 2026-05-06 08:32 | 46.37194 | 6.02662 | 14864 ft | 313 kts | 117° |
| 2026-05-06 08:33 | 46.36676 | 6.05695 | 14752 ft | 315 kts | 94° |
| 2026-05-06 08:33 | 46.37015 | 6.08836 | 14179 ft | 329 kts | 68° |
| 2026-05-06 08:33 | 46.38312 | 6.11543 | 13899 ft | 327 kts | 46° |
| 2026-05-06 08:33 | 46.39890 | 6.13870 | 13263 ft | 323 kts | 46° |
| 2026-05-06 08:34 | 46.41472 | 6.16177 | 12481 ft | 322 kts | 46° |
| 2026-05-06 08:34 | 46.44590 | 6.20732 | 11261 ft | 313 kts | 46° |
| 2026-05-06 08:34 | 46.46116 | 6.22970 | 10797 ft | 311 kts | 46° |
| 2026-05-06 08:35 | 46.47639 | 6.25214 | 10329 ft | 311 kts | 47° |
| 2026-05-06 08:35 | 46.49123 | 6.27403 | 9953 ft | 300 kts | 47° |
| 2026-05-06 08:35 | 46.50545 | 6.29494 | 9773 ft | 283 kts | 47° |
| 2026-05-06 08:35 | 46.51901 | 6.31508 | 9377 ft | 276 kts | 47° |
| 2026-05-06 08:36 | 46.53218 | 6.33481 | 9118 ft | 269 kts | 47° |
| 2026-05-06 08:36 | 46.54518 | 6.35442 | 9054 ft | 269 kts | 48° |
| 2026-05-06 08:36 | 46.55816 | 6.37405 | 8939 ft | 269 kts | 47° |
| 2026-05-06 08:36 | 46.56915 | 6.39520 | 8786 ft | 253 kts | 68° |
| 2026-05-06 08:37 | 46.57362 | 6.41868 | 8657 ft | 233 kts | 90° |
| 2026-05-06 08:37 | 46.57200 | 6.44168 | 8531 ft | 227 kts | 111° |
| 2026-05-06 08:37 | 46.56496 | 6.46187 | 8402 ft | 221 kts | 133° |
| 2026-05-06 08:37 | 46.55401 | 6.47660 | 8273 ft | 216 kts | 152° |
| 2026-05-06 08:38 | 46.54039 | 6.48506 | 8143 ft | 212 kts | 170° |
| 2026-05-06 08:38 | 46.52577 | 6.48639 | 8009 ft | 211 kts | 188° |
| 2026-05-06 08:38 | 46.51179 | 6.48071 | 7878 ft | 209 kts | 206° |
| 2026-05-06 08:38 | 46.49891 | 6.47089 | 7756 ft | 209 kts | 207° |
| 2026-05-06 08:39 | 46.48598 | 6.46110 | 7630 ft | 209 kts | 207° |
| 2026-05-06 08:39 | 46.47320 | 6.45115 | 7508 ft | 208 kts | 212° |
| 2026-05-06 08:39 | 46.46171 | 6.43845 | 7298 ft | 208 kts | 221° |
| 2026-05-06 08:39 | 46.45134 | 6.42403 | 7038 ft | 209 kts | 224° |
| 2026-05-06 08:40 | 46.44113 | 6.40899 | 6763 ft | 209 kts | 225° |
| 2026-05-06 08:40 | 46.43119 | 6.39421 | 6492 ft | 199 kts | 224° |
| 2026-05-06 08:40 | 46.42182 | 6.38028 | 6268 ft | 188 kts | 224° |
| 2026-05-06 08:40 | 46.41282 | 6.36692 | 6008 ft | 184 kts | 224° |
| 2026-05-06 08:41 | 46.40393 | 6.35374 | 5744 ft | 182 kts | 225° |
| 2026-05-06 08:41 | 46.39505 | 6.34059 | 5495 ft | 182 kts | 224° |
| 2026-05-06 08:41 | 46.38620 | 6.32748 | 5257 ft | 181 kts | 225° |
| 2026-05-06 08:41 | 46.37738 | 6.31441 | 5005 ft | 180 kts | 225° |
| 2026-05-06 08:42 | 46.36872 | 6.30160 | 4771 ft | 180 kts | 224° |
| 2026-05-06 08:42 | 46.35998 | 6.28870 | 4527 ft | 178 kts | 225° |
| 2026-05-06 08:42 | 46.35155 | 6.27623 | 4286 ft | 168 kts | 225° |
| 2026-05-06 08:42 | 46.34359 | 6.26446 | 4074 ft | 161 kts | 225° |
| 2026-05-06 08:43 | 46.33583 | 6.25299 | 3856 ft | 159 kts | 224° |
| 2026-05-06 08:43 | 46.32811 | 6.24159 | 3636 ft | 158 kts | 225° |
| 2026-05-06 08:43 | 46.32039 | 6.23021 | 3427 ft | 159 kts | 225° |
| 2026-05-06 08:43 | 46.31263 | 6.21876 | 3221 ft | 158 kts | 225° |
| 2026-05-06 08:44 | 46.30495 | 6.20744 | 2996 ft | 158 kts | 226° |
| 2026-05-06 08:44 | 46.29747 | 6.19640 | 2768 ft | 147 kts | 226° |
| 2026-05-06 08:44 | 46.29045 | 6.18605 | 2573 ft | 142 kts | 225° |
| 2026-05-06 08:44 | 46.28359 | 6.17595 | 2376 ft | 139 kts | 225° |
| 2026-05-06 08:45 | 46.27687 | 6.16605 | 2171 ft | 138 kts | 223° |
| 2026-05-06 08:45 | 46.27025 | 6.15631 | 1987 ft | 137 kts | 225° |
| 2026-05-06 08:45 | 46.26361 | 6.14653 | 1809 ft | 136 kts | 225° |
| 2026-05-06 08:45 | 46.25703 | 6.13688 | 1625 ft | 136 kts | 225° |
| 2026-05-06 08:46 | 46.25046 | 6.12724 | 1440 ft | 134 kts | 225° |
| 2026-05-06 08:46 | 46.24441 | 6.11826 | 1386 ft | 99 kts | 225° |
| 2026-05-06 08:46 | 46.24098 | 6.11319 | 1398 ft | 50 kts | 225° |
| 2026-05-06 08:46 | 46.23929 | 6.11086 | 1406 ft | 27 kts | 206° |
| 2026-05-06 08:47 | 46.23778 | 6.11088 | 1400 ft | 10 kts | 166° |
| 2026-05-06 08:47 | 46.23711 | 6.11085 | 1403 ft | 10 kts | 204° |
| 2026-05-06 08:47 | 46.23657 | 6.11088 | 1403 ft | 6 kts | 129° |
| 2026-05-06 08:47 | 46.23618 | 6.11142 | 1401 ft | 9 kts | 137° |
| 2026-05-06 08:48 | 46.23567 | 6.11154 | 1399 ft | 7 kts | 206° |
| 2026-05-06 08:48 | 46.23532 | 6.11108 | 1400 ft | 6 kts | 228° |
| 2026-05-06 08:48 | 46.23486 | 6.11032 | 1398 ft | 12 kts | 228° |
| 2026-05-06 08:48 | 46.23427 | 6.10948 | 1401 ft | 12 kts | 222° |
| 2026-05-06 08:49 | 46.23373 | 6.10872 | 1396 ft | 10 kts | 226° |
| 2026-05-06 08:49 | 46.23323 | 6.10808 | 1402 ft | 14 kts | 208° |
| 2026-05-06 08:49 | 46.23225 | 6.10740 | 1401 ft | 15 kts | 219° |
| 2026-05-06 08:49 | 46.23158 | 6.10642 | 1403 ft | 13 kts | 226° |
| 2026-05-06 08:50 | 46.23103 | 6.10564 | 1408 ft | 10 kts | 224° |
| 2026-05-06 08:50 | 46.23057 | 6.10499 | 1408 ft | 7 kts | 216° |
| 2026-05-06 08:50 | 46.23016 | 6.10520 | 1407 ft | 7 kts | 140° |
| 2026-05-06 08:50 | 46.23007 | 6.10532 | 1411 ft | 0 kts | 138° |